sensor_id;sensor_type;location;lat;lon;timestamp;P1;durP1;ratioP1;P2;durP2;ratioP2
50126;SDS011;36024;47.974;16.398;2023-04-15T00:01:04;0.30;;;0.30;;
50126;SDS011;36024;47.974;16.398;2023-04-15T00:03:31;0.50;;;0.50;;
50126;SDS011;36024;47.974;16.398;2023-04-15T00:06:00;0.60;;;0.40;;
50126;SDS011;36024;47.974;16.398;2023-04-15T00:08:26;1.03;;;0.40;;
50126;SDS011;36024;47.974;16.398;2023-04-15T00:10:54;0.33;;;0.33;;
50126;SDS011;36024;47.974;16.398;2023-04-15T00:13:20;0.70;;;0.50;;
50126;SDS011;36024;47.974;16.398;2023-04-15T00:15:47;0.50;;;0.50;;
50126;SDS011;36024;47.974;16.398;2023-04-15T00:18:13;1.37;;;0.50;;
50126;SDS011;36024;47.974;16.398;2023-04-15T00:20:40;0.63;;;0.40;;
50126;SDS011;36024;47.974;16.398;2023-04-15T00:23:07;0.23;;;0.20;;
50126;SDS011;36024;47.974;16.398;2023-04-15T00:25:34;0.57;;;0.30;;
50126;SDS011;36024;47.974;16.398;2023-04-15T00:28:00;0.50;;;0.40;;
50126;SDS011;36024;47.974;16.398;2023-04-15T00:30:28;0.67;;;0.40;;
50126;SDS011;36024;47.974;16.398;2023-04-15T00:32:54;0.50;;;0.40;;
50126;SDS011;36024;47.974;16.398;2023-04-15T00:35:21;0.30;;;0.30;;
50126;SDS011;36024;47.974;16.398;2023-04-15T00:37:49;0.47;;;0.30;;
50126;SDS011;36024;47.974;16.398;2023-04-15T00:40:17;0.57;;;0.30;;
50126;SDS011;36024;47.974;16.398;2023-04-15T00:42:44;0.40;;;0.40;;
50126;SDS011;36024;47.974;16.398;2023-04-15T00:45:12;0.33;;;0.33;;
50126;SDS011;36024;47.974;16.398;2023-04-15T00:47:40;0.70;;;0.40;;
50126;SDS011;36024;47.974;16.398;2023-04-15T00:50:07;0.80;;;0.40;;
50126;SDS011;36024;47.974;16.398;2023-04-15T00:52:34;0.40;;;0.40;;
50126;SDS011;36024;47.974;16.398;2023-04-15T00:55:02;0.33;;;0.33;;
50126;SDS011;36024;47.974;16.398;2023-04-15T00:57:30;0.30;;;0.30;;
50126;SDS011;36024;47.974;16.398;2023-04-15T00:59:57;0.40;;;0.40;;
50126;SDS011;36024;47.974;16.398;2023-04-15T01:02:23;0.30;;;0.30;;
50126;SDS011;36024;47.974;16.398;2023-04-15T01:04:50;0.37;;;0.37;;
50126;SDS011;36024;47.974;16.398;2023-04-15T01:07:17;0.47;;;0.30;;
50126;SDS011;36024;47.974;16.398;2023-04-15T01:09:43;0.40;;;0.40;;
50126;SDS011;36024;47.974;16.398;2023-04-15T01:12:11;0.40;;;0.40;;
50126;SDS011;36024;47.974;16.398;2023-04-15T01:14:38;0.83;;;0.37;;
50126;SDS011;36024;47.974;16.398;2023-04-15T01:17:05;0.73;;;0.40;;
50126;SDS011;36024;47.974;16.398;2023-04-15T01:19:31;1.13;;;0.40;;
50126;SDS011;36024;47.974;16.398;2023-04-15T01:21:58;0.43;;;0.43;;
50126;SDS011;36024;47.974;16.398;2023-04-15T01:24:25;0.50;;;0.50;;
50126;SDS011;36024;47.974;16.398;2023-04-15T01:26:53;0.70;;;0.70;;
50126;SDS011;36024;47.974;16.398;2023-04-15T01:29:22;0.87;;;0.87;;
50126;SDS011;36024;47.974;16.398;2023-04-15T01:31:50;1.10;;;1.03;;
50126;SDS011;36024;47.974;16.398;2023-04-15T01:34:17;0.80;;;0.80;;
50126;SDS011;36024;47.974;16.398;2023-04-15T01:36:44;0.70;;;0.60;;
50126;SDS011;36024;47.974;16.398;2023-04-15T01:39:12;1.20;;;0.57;;
50126;SDS011;36024;47.974;16.398;2023-04-15T01:41:39;0.63;;;0.47;;
50126;SDS011;36024;47.974;16.398;2023-04-15T01:44:07;0.50;;;0.30;;
50126;SDS011;36024;47.974;16.398;2023-04-15T01:46:34;0.63;;;0.40;;
50126;SDS011;36024;47.974;16.398;2023-04-15T01:49:01;1.37;;;0.40;;
50126;SDS011;36024;47.974;16.398;2023-04-15T01:51:30;1.37;;;0.30;;
50126;SDS011;36024;47.974;16.398;2023-04-15T01:53:57;0.47;;;0.40;;
50126;SDS011;36024;47.974;16.398;2023-04-15T01:56:23;0.33;;;0.30;;
50126;SDS011;36024;47.974;16.398;2023-04-15T01:58:50;0.30;;;0.30;;
50126;SDS011;36024;47.974;16.398;2023-04-15T02:01:17;0.33;;;0.30;;
50126;SDS011;36024;47.974;16.398;2023-04-15T02:03:45;0.50;;;0.47;;
50126;SDS011;36024;47.974;16.398;2023-04-15T02:06:14;0.90;;;0.80;;
50126;SDS011;36024;47.974;16.398;2023-04-15T02:08:40;2.23;;;2.03;;
50126;SDS011;36024;47.974;16.398;2023-04-15T02:11:07;1.37;;;1.27;;
50126;SDS011;36024;47.974;16.398;2023-04-15T02:13:34;1.23;;;0.80;;
50126;SDS011;36024;47.974;16.398;2023-04-15T02:16:01;1.17;;;0.80;;
50126;SDS011;36024;47.974;16.398;2023-04-15T02:18:28;0.60;;;0.60;;
50126;SDS011;36024;47.974;16.398;2023-04-15T02:20:55;0.63;;;0.30;;
50126;SDS011;36024;47.974;16.398;2023-04-15T02:23:23;0.40;;;0.40;;
50126;SDS011;36024;47.974;16.398;2023-04-15T02:25:50;0.90;;;0.33;;
50126;SDS011;36024;47.974;16.398;2023-04-15T02:28:19;0.20;;;0.20;;
50126;SDS011;36024;47.974;16.398;2023-04-15T02:30:47;0.63;;;0.40;;
50126;SDS011;36024;47.974;16.398;2023-04-15T02:33:16;0.40;;;0.30;;
50126;SDS011;36024;47.974;16.398;2023-04-15T02:35:43;0.30;;;0.30;;
50126;SDS011;36024;47.974;16.398;2023-04-15T02:38:10;0.30;;;0.30;;
50126;SDS011;36024;47.974;16.398;2023-04-15T02:40:37;0.50;;;0.40;;
50126;SDS011;36024;47.974;16.398;2023-04-15T02:43:05;0.40;;;0.40;;
50126;SDS011;36024;47.974;16.398;2023-04-15T02:45:33;0.70;;;0.50;;
50126;SDS011;36024;47.974;16.398;2023-04-15T02:48:01;0.30;;;0.30;;
50126;SDS011;36024;47.974;16.398;2023-04-15T02:50:31;0.30;;;0.30;;
50126;SDS011;36024;47.974;16.398;2023-04-15T02:52:58;0.47;;;0.40;;
50126;SDS011;36024;47.974;16.398;2023-04-15T02:55:27;0.50;;;0.43;;
50126;SDS011;36024;47.974;16.398;2023-04-15T02:57:54;0.40;;;0.40;;
50126;SDS011;36024;47.974;16.398;2023-04-15T03:00:22;0.70;;;0.57;;
50126;SDS011;36024;47.974;16.398;2023-04-15T03:02:50;0.60;;;0.60;;
50126;SDS011;36024;47.974;16.398;2023-04-15T03:05:22;0.70;;;0.60;;
50126;SDS011;36024;47.974;16.398;2023-04-15T03:07:50;0.43;;;0.43;;
50126;SDS011;36024;47.974;16.398;2023-04-15T03:10:17;0.77;;;0.70;;
50126;SDS011;36024;47.974;16.398;2023-04-15T03:12:45;0.60;;;0.60;;
50126;SDS011;36024;47.974;16.398;2023-04-15T03:15:16;0.60;;;0.60;;
50126;SDS011;36024;47.974;16.398;2023-04-15T03:17:46;0.90;;;0.80;;
50126;SDS011;36024;47.974;16.398;2023-04-15T03:20:15;0.83;;;0.70;;
50126;SDS011;36024;47.974;16.398;2023-04-15T03:22:42;1.10;;;0.73;;
50126;SDS011;36024;47.974;16.398;2023-04-15T03:25:10;1.37;;;0.70;;
50126;SDS011;36024;47.974;16.398;2023-04-15T03:27:37;0.73;;;0.73;;
50126;SDS011;36024;47.974;16.398;2023-04-15T03:30:04;0.90;;;0.90;;
50126;SDS011;36024;47.974;16.398;2023-04-15T03:32:34;1.00;;;0.80;;
50126;SDS011;36024;47.974;16.398;2023-04-15T03:35:01;1.10;;;0.87;;
50126;SDS011;36024;47.974;16.398;2023-04-15T03:37:28;0.70;;;0.70;;
50126;SDS011;36024;47.974;16.398;2023-04-15T03:39:54;0.87;;;0.87;;
50126;SDS011;36024;47.974;16.398;2023-04-15T03:42:21;0.80;;;0.80;;
50126;SDS011;36024;47.974;16.398;2023-04-15T03:44:48;0.80;;;0.80;;
50126;SDS011;36024;47.974;16.398;2023-04-15T03:47:14;1.33;;;0.90;;
50126;SDS011;36024;47.974;16.398;2023-04-15T03:49:41;0.70;;;0.70;;
50126;SDS011;36024;47.974;16.398;2023-04-15T03:52:08;1.10;;;0.87;;
50126;SDS011;36024;47.974;16.398;2023-04-15T03:54:34;1.50;;;0.70;;
50126;SDS011;36024;47.974;16.398;2023-04-15T03:57:01;0.57;;;0.57;;
50126;SDS011;36024;47.974;16.398;2023-04-15T03:59:28;0.80;;;0.80;;
50126;SDS011;36024;47.974;16.398;2023-04-15T04:01:55;0.90;;;0.70;;
50126;SDS011;36024;47.974;16.398;2023-04-15T04:04:21;0.87;;;0.80;;
50126;SDS011;36024;47.974;16.398;2023-04-15T04:06:48;1.13;;;1.00;;
50126;SDS011;36024;47.974;16.398;2023-04-15T04:09:15;1.83;;;1.20;;
50126;SDS011;36024;47.974;16.398;2023-04-15T04:11:42;1.37;;;1.27;;
50126;SDS011;36024;47.974;16.398;2023-04-15T04:14:08;1.40;;;1.30;;
50126;SDS011;36024;47.974;16.398;2023-04-15T04:16:35;1.23;;;1.13;;
50126;SDS011;36024;47.974;16.398;2023-04-15T04:19:02;1.40;;;1.30;;
50126;SDS011;36024;47.974;16.398;2023-04-15T04:21:29;1.47;;;1.20;;
50126;SDS011;36024;47.974;16.398;2023-04-15T04:23:56;1.50;;;1.40;;
50126;SDS011;36024;47.974;16.398;2023-04-15T04:26:22;1.40;;;1.20;;
50126;SDS011;36024;47.974;16.398;2023-04-15T04:28:49;0.80;;;0.80;;
50126;SDS011;36024;47.974;16.398;2023-04-15T04:31:15;1.30;;;1.20;;
50126;SDS011;36024;47.974;16.398;2023-04-15T04:33:42;1.23;;;1.13;;
50126;SDS011;36024;47.974;16.398;2023-04-15T04:36:09;1.30;;;1.20;;
50126;SDS011;36024;47.974;16.398;2023-04-15T04:38:35;1.60;;;1.50;;
50126;SDS011;36024;47.974;16.398;2023-04-15T04:41:02;1.70;;;1.60;;
50126;SDS011;36024;47.974;16.398;2023-04-15T04:43:29;1.60;;;1.10;;
50126;SDS011;36024;47.974;16.398;2023-04-15T04:45:55;1.43;;;1.33;;
50126;SDS011;36024;47.974;16.398;2023-04-15T04:48:22;1.17;;;1.17;;
50126;SDS011;36024;47.974;16.398;2023-04-15T04:50:49;1.70;;;1.50;;
50126;SDS011;36024;47.974;16.398;2023-04-15T04:53:15;1.60;;;1.50;;
50126;SDS011;36024;47.974;16.398;2023-04-15T04:55:43;1.47;;;1.37;;
50126;SDS011;36024;47.974;16.398;2023-04-15T04:58:09;2.27;;;1.60;;
50126;SDS011;36024;47.974;16.398;2023-04-15T05:00:36;1.63;;;1.53;;
50126;SDS011;36024;47.974;16.398;2023-04-15T05:03:03;1.97;;;1.80;;
50126;SDS011;36024;47.974;16.398;2023-04-15T05:05:30;1.73;;;1.63;;
50126;SDS011;36024;47.974;16.398;2023-04-15T05:07:57;2.20;;;1.63;;
50126;SDS011;36024;47.974;16.398;2023-04-15T05:10:23;1.80;;;1.70;;
50126;SDS011;36024;47.974;16.398;2023-04-15T05:12:50;1.60;;;1.50;;
50126;SDS011;36024;47.974;16.398;2023-04-15T05:15:17;2.20;;;2.00;;
50126;SDS011;36024;47.974;16.398;2023-04-15T05:17:44;1.87;;;1.77;;
50126;SDS011;36024;47.974;16.398;2023-04-15T05:20:11;1.83;;;1.73;;
50126;SDS011;36024;47.974;16.398;2023-04-15T05:22:38;1.70;;;1.60;;
50126;SDS011;36024;47.974;16.398;2023-04-15T05:25:04;2.07;;;1.93;;
50126;SDS011;36024;47.974;16.398;2023-04-15T05:27:31;1.90;;;1.80;;
50126;SDS011;36024;47.974;16.398;2023-04-15T05:29:58;1.80;;;1.70;;
50126;SDS011;36024;47.974;16.398;2023-04-15T05:32:24;1.70;;;1.60;;
50126;SDS011;36024;47.974;16.398;2023-04-15T05:34:51;1.63;;;1.53;;
50126;SDS011;36024;47.974;16.398;2023-04-15T05:37:18;1.70;;;1.60;;
50126;SDS011;36024;47.974;16.398;2023-04-15T05:39:47;1.83;;;1.73;;
50126;SDS011;36024;47.974;16.398;2023-04-15T05:42:14;1.70;;;1.60;;
50126;SDS011;36024;47.974;16.398;2023-04-15T05:44:41;1.57;;;1.47;;
50126;SDS011;36024;47.974;16.398;2023-04-15T05:47:07;2.80;;;2.00;;
50126;SDS011;36024;47.974;16.398;2023-04-15T05:49:35;1.90;;;1.80;;
50126;SDS011;36024;47.974;16.398;2023-04-15T05:52:02;2.30;;;2.10;;
50126;SDS011;36024;47.974;16.398;2023-04-15T05:54:28;1.87;;;1.77;;
50126;SDS011;36024;47.974;16.398;2023-04-15T05:56:55;2.23;;;1.80;;
50126;SDS011;36024;47.974;16.398;2023-04-15T05:59:23;2.20;;;2.00;;
50126;SDS011;36024;47.974;16.398;2023-04-15T06:01:49;2.43;;;1.90;;
50126;SDS011;36024;47.974;16.398;2023-04-15T06:04:17;2.90;;;2.20;;
50126;SDS011;36024;47.974;16.398;2023-04-15T06:06:44;2.37;;;2.10;;
50126;SDS011;36024;47.974;16.398;2023-04-15T06:09:10;2.20;;;2.00;;
50126;SDS011;36024;47.974;16.398;2023-04-15T06:11:37;1.80;;;1.70;;
50126;SDS011;36024;47.974;16.398;2023-04-15T06:14:04;2.10;;;1.60;;
50126;SDS011;36024;47.974;16.398;2023-04-15T06:16:31;1.57;;;1.47;;
50126;SDS011;36024;47.974;16.398;2023-04-15T06:18:57;1.40;;;1.30;;
50126;SDS011;36024;47.974;16.398;2023-04-15T06:21:24;1.30;;;1.20;;
50126;SDS011;36024;47.974;16.398;2023-04-15T06:23:51;1.33;;;1.23;;
50126;SDS011;36024;47.974;16.398;2023-04-15T06:26:18;1.67;;;1.50;;
50126;SDS011;36024;47.974;16.398;2023-04-15T06:28:44;1.57;;;1.37;;
50126;SDS011;36024;47.974;16.398;2023-04-15T06:31:11;1.50;;;1.40;;
50126;SDS011;36024;47.974;16.398;2023-04-15T06:33:38;1.57;;;1.47;;
50126;SDS011;36024;47.974;16.398;2023-04-15T06:36:05;1.90;;;1.40;;
50126;SDS011;36024;47.974;16.398;2023-04-15T06:38:31;4.33;;;3.90;;
50126;SDS011;36024;47.974;16.398;2023-04-15T06:40:58;9.10;;;7.80;;
50126;SDS011;36024;47.974;16.398;2023-04-15T06:43:25;5.80;;;5.10;;
50126;SDS011;36024;47.974;16.398;2023-04-15T06:45:51;3.00;;;2.43;;
50126;SDS011;36024;47.974;16.398;2023-04-15T06:48:18;1.80;;;1.70;;
50126;SDS011;36024;47.974;16.398;2023-04-15T06:50:44;1.80;;;1.70;;
50126;SDS011;36024;47.974;16.398;2023-04-15T06:53:11;1.93;;;1.63;;
50126;SDS011;36024;47.974;16.398;2023-04-15T06:55:38;1.47;;;1.30;;
50126;SDS011;36024;47.974;16.398;2023-04-15T06:58:05;6.60;;;6.10;;
50126;SDS011;36024;47.974;16.398;2023-04-15T07:00:32;3.77;;;3.50;;
50126;SDS011;36024;47.974;16.398;2023-04-15T07:02:59;1.63;;;1.53;;
50126;SDS011;36024;47.974;16.398;2023-04-15T07:05:29;1.33;;;1.23;;
50126;SDS011;36024;47.974;16.398;2023-04-15T07:07:56;1.40;;;1.30;;
50126;SDS011;36024;47.974;16.398;2023-04-15T07:10:22;1.20;;;1.20;;
50126;SDS011;36024;47.974;16.398;2023-04-15T07:12:51;1.70;;;1.60;;
50126;SDS011;36024;47.974;16.398;2023-04-15T07:15:17;1.87;;;1.60;;
50126;SDS011;36024;47.974;16.398;2023-04-15T07:17:44;1.47;;;1.37;;
50126;SDS011;36024;47.974;16.398;2023-04-15T07:20:11;1.73;;;1.60;;
50126;SDS011;36024;47.974;16.398;2023-04-15T07:22:38;1.97;;;1.77;;
50126;SDS011;36024;47.974;16.398;2023-04-15T07:25:05;1.70;;;1.60;;
50126;SDS011;36024;47.974;16.398;2023-04-15T07:27:32;1.57;;;1.47;;
50126;SDS011;36024;47.974;16.398;2023-04-15T07:29:59;1.60;;;1.50;;
50126;SDS011;36024;47.974;16.398;2023-04-15T07:32:26;1.30;;;1.20;;
50126;SDS011;36024;47.974;16.398;2023-04-15T07:34:52;1.30;;;1.20;;
50126;SDS011;36024;47.974;16.398;2023-04-15T07:37:19;1.30;;;1.20;;
50126;SDS011;36024;47.974;16.398;2023-04-15T07:39:46;1.20;;;0.90;;
50126;SDS011;36024;47.974;16.398;2023-04-15T07:42:13;0.80;;;0.80;;
50126;SDS011;36024;47.974;16.398;2023-04-15T07:44:40;0.80;;;0.80;;
50126;SDS011;36024;47.974;16.398;2023-04-15T07:47:10;1.20;;;1.10;;
50126;SDS011;36024;47.974;16.398;2023-04-15T07:49:37;1.23;;;1.13;;
50126;SDS011;36024;47.974;16.398;2023-04-15T07:52:03;0.90;;;0.90;;
50126;SDS011;36024;47.974;16.398;2023-04-15T07:54:31;1.13;;;1.03;;
50126;SDS011;36024;47.974;16.398;2023-04-15T07:56:57;1.40;;;1.30;;
50126;SDS011;36024;47.974;16.398;2023-04-15T07:59:24;1.20;;;1.00;;
50126;SDS011;36024;47.974;16.398;2023-04-15T08:01:52;0.63;;;0.63;;
50126;SDS011;36024;47.974;16.398;2023-04-15T08:04:19;0.83;;;0.83;;
50126;SDS011;36024;47.974;16.398;2023-04-15T08:06:46;1.80;;;0.90;;
50126;SDS011;36024;47.974;16.398;2023-04-15T08:09:15;1.00;;;0.90;;
50126;SDS011;36024;47.974;16.398;2023-04-15T08:11:41;0.93;;;0.90;;
50126;SDS011;36024;47.974;16.398;2023-04-15T08:14:08;1.00;;;0.93;;
50126;SDS011;36024;47.974;16.398;2023-04-15T08:16:35;1.50;;;1.37;;
50126;SDS011;36024;47.974;16.398;2023-04-15T08:19:02;1.50;;;1.40;;
50126;SDS011;36024;47.974;16.398;2023-04-15T08:21:29;1.03;;;1.03;;
50126;SDS011;36024;47.974;16.398;2023-04-15T08:23:56;0.83;;;0.80;;
50126;SDS011;36024;47.974;16.398;2023-04-15T08:26:22;1.13;;;0.90;;
50126;SDS011;36024;47.974;16.398;2023-04-15T08:28:49;0.70;;;0.70;;
50126;SDS011;36024;47.974;16.398;2023-04-15T08:31:17;0.80;;;0.70;;
50126;SDS011;36024;47.974;16.398;2023-04-15T08:33:44;0.70;;;0.70;;
50126;SDS011;36024;47.974;16.398;2023-04-15T08:36:11;0.50;;;0.50;;
50126;SDS011;36024;47.974;16.398;2023-04-15T08:38:39;0.60;;;0.60;;
50126;SDS011;36024;47.974;16.398;2023-04-15T08:41:27;1.10;;;1.00;;
50126;SDS011;36024;47.974;16.398;2023-04-15T08:43:56;1.23;;;0.70;;
50126;SDS011;36024;47.974;16.398;2023-04-15T08:46:24;0.70;;;0.70;;
50126;SDS011;36024;47.974;16.398;2023-04-15T08:48:51;0.70;;;0.70;;
50126;SDS011;36024;47.974;16.398;2023-04-15T08:51:21;1.03;;;0.90;;
50126;SDS011;36024;47.974;16.398;2023-04-15T08:53:50;0.70;;;0.70;;
50126;SDS011;36024;47.974;16.398;2023-04-15T08:56:17;0.73;;;0.60;;
50126;SDS011;36024;47.974;16.398;2023-04-15T08:58:45;0.50;;;0.50;;
50126;SDS011;36024;47.974;16.398;2023-04-15T09:01:12;0.50;;;0.50;;
50126;SDS011;36024;47.974;16.398;2023-04-15T09:03:39;0.40;;;0.40;;
50126;SDS011;36024;47.974;16.398;2023-04-15T09:06:06;0.37;;;0.37;;
50126;SDS011;36024;47.974;16.398;2023-04-15T09:08:33;0.50;;;0.50;;
50126;SDS011;36024;47.974;16.398;2023-04-15T09:11:01;0.60;;;0.60;;
50126;SDS011;36024;47.974;16.398;2023-04-15T09:13:28;0.63;;;0.63;;
50126;SDS011;36024;47.974;16.398;2023-04-15T09:15:55;0.50;;;0.50;;
50126;SDS011;36024;47.974;16.398;2023-04-15T09:18:30;0.90;;;0.50;;
50126;SDS011;36024;47.974;16.398;2023-04-15T09:21:11;0.80;;;0.40;;
50126;SDS011;36024;47.974;16.398;2023-04-15T09:23:40;0.50;;;0.40;;
50126;SDS011;36024;47.974;16.398;2023-04-15T09:26:07;0.50;;;0.50;;
50126;SDS011;36024;47.974;16.398;2023-04-15T09:28:39;0.50;;;0.50;;
50126;SDS011;36024;47.974;16.398;2023-04-15T09:31:06;1.07;;;1.00;;
50126;SDS011;36024;47.974;16.398;2023-04-15T09:33:33;1.30;;;1.20;;
50126;SDS011;36024;47.974;16.398;2023-04-15T09:38:30;0.50;;;0.50;;
50126;SDS011;36024;47.974;16.398;2023-04-15T09:40:57;1.00;;;0.90;;
50126;SDS011;36024;47.974;16.398;2023-04-15T09:43:37;0.63;;;0.63;;
50126;SDS011;36024;47.974;16.398;2023-04-15T09:46:05;0.50;;;0.40;;
50126;SDS011;36024;47.974;16.398;2023-04-15T09:48:31;0.50;;;0.50;;
50126;SDS011;36024;47.974;16.398;2023-04-15T09:50:58;0.60;;;0.57;;
50126;SDS011;36024;47.974;16.398;2023-04-15T09:53:26;1.37;;;0.90;;
50126;SDS011;36024;47.974;16.398;2023-04-15T09:55:57;0.50;;;0.47;;
50126;SDS011;36024;47.974;16.398;2023-04-15T09:58:27;0.50;;;0.50;;
50126;SDS011;36024;47.974;16.398;2023-04-15T10:00:56;0.40;;;0.40;;
50126;SDS011;36024;47.974;16.398;2023-04-15T10:03:24;0.50;;;0.50;;
50126;SDS011;36024;47.974;16.398;2023-04-15T10:05:54;0.50;;;0.50;;
50126;SDS011;36024;47.974;16.398;2023-04-15T10:08:22;0.60;;;0.60;;
50126;SDS011;36024;47.974;16.398;2023-04-15T10:10:50;0.67;;;0.60;;
50126;SDS011;36024;47.974;16.398;2023-04-15T10:13:18;0.50;;;0.50;;
50126;SDS011;36024;47.974;16.398;2023-04-15T10:16:13;0.60;;;0.60;;
50126;SDS011;36024;47.974;16.398;2023-04-15T10:18:42;0.50;;;0.50;;
50126;SDS011;36024;47.974;16.398;2023-04-15T10:21:09;0.60;;;0.50;;
50126;SDS011;36024;47.974;16.398;2023-04-15T10:23:36;0.67;;;0.40;;
50126;SDS011;36024;47.974;16.398;2023-04-15T10:26:03;0.60;;;0.60;;
50126;SDS011;36024;47.974;16.398;2023-04-15T10:28:30;0.70;;;0.70;;
50126;SDS011;36024;47.974;16.398;2023-04-15T10:30:57;1.03;;;0.70;;
50126;SDS011;36024;47.974;16.398;2023-04-15T10:33:25;0.67;;;0.67;;
50126;SDS011;36024;47.974;16.398;2023-04-15T10:35:53;0.87;;;0.60;;
50126;SDS011;36024;47.974;16.398;2023-04-15T10:41:13;0.50;;;0.50;;
50126;SDS011;36024;47.974;16.398;2023-04-15T10:43:47;0.60;;;0.40;;
50126;SDS011;36024;47.974;16.398;2023-04-15T10:46:22;0.40;;;0.40;;
50126;SDS011;36024;47.974;16.398;2023-04-15T10:48:52;0.90;;;0.90;;
50126;SDS011;36024;47.974;16.398;2023-04-15T10:51:25;0.60;;;0.60;;
50126;SDS011;36024;47.974;16.398;2023-04-15T10:53:56;0.53;;;0.53;;
50126;SDS011;36024;47.974;16.398;2023-04-15T10:56:27;0.40;;;0.40;;
50126;SDS011;36024;47.974;16.398;2023-04-15T10:58:57;0.50;;;0.40;;
50126;SDS011;36024;47.974;16.398;2023-04-15T11:01:49;0.47;;;0.40;;
50126;SDS011;36024;47.974;16.398;2023-04-15T11:07:39;0.50;;;0.50;;
50126;SDS011;36024;47.974;16.398;2023-04-15T11:12:39;0.80;;;0.60;;
50126;SDS011;36024;47.974;16.398;2023-04-15T11:17:54;1.70;;;1.03;;
50126;SDS011;36024;47.974;16.398;2023-04-15T11:20:22;1.07;;;1.00;;
50126;SDS011;36024;47.974;16.398;2023-04-15T11:22:49;0.60;;;0.60;;
50126;SDS011;36024;47.974;16.398;2023-04-15T11:25:23;0.30;;;0.30;;
50126;SDS011;36024;47.974;16.398;2023-04-15T11:27:52;0.40;;;0.30;;
50126;SDS011;36024;47.974;16.398;2023-04-15T11:30:20;0.30;;;0.30;;
50126;SDS011;36024;47.974;16.398;2023-04-15T11:32:49;0.70;;;0.70;;
50126;SDS011;36024;47.974;16.398;2023-04-15T11:35:16;0.83;;;0.60;;
50126;SDS011;36024;47.974;16.398;2023-04-15T11:37:44;0.40;;;0.40;;
50126;SDS011;36024;47.974;16.398;2023-04-15T11:40:11;0.33;;;0.30;;
50126;SDS011;36024;47.974;16.398;2023-04-15T11:42:38;1.00;;;0.40;;
50126;SDS011;36024;47.974;16.398;2023-04-15T11:45:15;0.63;;;0.60;;
50126;SDS011;36024;47.974;16.398;2023-04-15T11:47:42;0.60;;;0.60;;
50126;SDS011;36024;47.974;16.398;2023-04-15T11:50:15;0.60;;;0.60;;
50126;SDS011;36024;47.974;16.398;2023-04-15T11:55:19;0.37;;;0.37;;
50126;SDS011;36024;47.974;16.398;2023-04-15T11:57:46;1.50;;;0.37;;
50126;SDS011;36024;47.974;16.398;2023-04-15T12:00:12;0.40;;;0.40;;
50126;SDS011;36024;47.974;16.398;2023-04-15T12:02:39;0.50;;;0.50;;
50126;SDS011;36024;47.974;16.398;2023-04-15T12:05:07;0.40;;;0.40;;
50126;SDS011;36024;47.974;16.398;2023-04-15T12:10:23;0.50;;;0.50;;
50126;SDS011;36024;47.974;16.398;2023-04-15T12:12:51;0.60;;;0.60;;
50126;SDS011;36024;47.974;16.398;2023-04-15T12:15:21;0.40;;;0.40;;
50126;SDS011;36024;47.974;16.398;2023-04-15T12:17:52;0.50;;;0.50;;
50126;SDS011;36024;47.974;16.398;2023-04-15T12:20:23;0.40;;;0.40;;
50126;SDS011;36024;47.974;16.398;2023-04-15T12:22:51;0.63;;;0.60;;
50126;SDS011;36024;47.974;16.398;2023-04-15T12:25:18;0.50;;;0.50;;
50126;SDS011;36024;47.974;16.398;2023-04-15T12:27:49;0.60;;;0.60;;
50126;SDS011;36024;47.974;16.398;2023-04-15T12:30:17;0.60;;;0.60;;
50126;SDS011;36024;47.974;16.398;2023-04-15T12:32:43;0.80;;;0.80;;
50126;SDS011;36024;47.974;16.398;2023-04-15T12:35:11;1.00;;;0.73;;
50126;SDS011;36024;47.974;16.398;2023-04-15T12:37:38;0.60;;;0.60;;
50126;SDS011;36024;47.974;16.398;2023-04-15T12:40:07;0.70;;;0.70;;
50126;SDS011;36024;47.974;16.398;2023-04-15T12:42:33;0.50;;;0.50;;
50126;SDS011;36024;47.974;16.398;2023-04-15T12:45:00;0.60;;;0.40;;
50126;SDS011;36024;47.974;16.398;2023-04-15T12:47:27;0.50;;;0.40;;
50126;SDS011;36024;47.974;16.398;2023-04-15T12:49:54;0.30;;;0.30;;
50126;SDS011;36024;47.974;16.398;2023-04-15T12:52:20;0.37;;;0.37;;
50126;SDS011;36024;47.974;16.398;2023-04-15T12:54:47;0.30;;;0.30;;
50126;SDS011;36024;47.974;16.398;2023-04-15T12:57:14;0.33;;;0.33;;
50126;SDS011;36024;47.974;16.398;2023-04-15T12:59:40;0.30;;;0.30;;
50126;SDS011;36024;47.974;16.398;2023-04-15T13:02:07;1.30;;;0.40;;
50126;SDS011;36024;47.974;16.398;2023-04-15T13:04:34;0.30;;;0.30;;
50126;SDS011;36024;47.974;16.398;2023-04-15T13:07:01;0.30;;;0.30;;
50126;SDS011;36024;47.974;16.398;2023-04-15T13:09:27;0.30;;;0.30;;
50126;SDS011;36024;47.974;16.398;2023-04-15T13:11:54;0.20;;;0.20;;
50126;SDS011;36024;47.974;16.398;2023-04-15T13:14:21;0.43;;;0.20;;
50126;SDS011;36024;47.974;16.398;2023-04-15T13:16:48;0.20;;;0.20;;
50126;SDS011;36024;47.974;16.398;2023-04-15T13:19:14;0.30;;;0.30;;
50126;SDS011;36024;47.974;16.398;2023-04-15T13:21:41;0.83;;;0.30;;
50126;SDS011;36024;47.974;16.398;2023-04-15T13:24:08;0.30;;;0.20;;
50126;SDS011;36024;47.974;16.398;2023-04-15T13:26:35;0.20;;;0.20;;
50126;SDS011;36024;47.974;16.398;2023-04-15T13:29:02;1.10;;;0.20;;
50126;SDS011;36024;47.974;16.398;2023-04-15T13:31:29;0.30;;;0.30;;
50126;SDS011;36024;47.974;16.398;2023-04-15T13:33:56;0.30;;;0.30;;
50126;SDS011;36024;47.974;16.398;2023-04-15T13:36:22;0.30;;;0.27;;
50126;SDS011;36024;47.974;16.398;2023-04-15T13:38:49;0.20;;;0.20;;
50126;SDS011;36024;47.974;16.398;2023-04-15T13:41:17;0.20;;;0.20;;
50126;SDS011;36024;47.974;16.398;2023-04-15T13:43:43;0.30;;;0.20;;
50126;SDS011;36024;47.974;16.398;2023-04-15T13:46:10;0.30;;;0.30;;
50126;SDS011;36024;47.974;16.398;2023-04-15T13:48:37;0.30;;;0.30;;
50126;SDS011;36024;47.974;16.398;2023-04-15T13:51:04;0.30;;;0.30;;
50126;SDS011;36024;47.974;16.398;2023-04-15T13:53:30;0.30;;;0.30;;
50126;SDS011;36024;47.974;16.398;2023-04-15T13:56:05;0.30;;;0.30;;
50126;SDS011;36024;47.974;16.398;2023-04-15T13:58:32;0.60;;;0.30;;
50126;SDS011;36024;47.974;16.398;2023-04-15T14:00:59;0.30;;;0.30;;
50126;SDS011;36024;47.974;16.398;2023-04-15T14:03:29;0.93;;;0.30;;
50126;SDS011;36024;47.974;16.398;2023-04-15T14:05:56;0.13;;;0.13;;
50126;SDS011;36024;47.974;16.398;2023-04-15T14:08:23;0.20;;;0.20;;
50126;SDS011;36024;47.974;16.398;2023-04-15T14:10:50;0.10;;;0.10;;
50126;SDS011;36024;47.974;16.398;2023-04-15T14:13:17;0.10;;;0.10;;
50126;SDS011;36024;47.974;16.398;2023-04-15T14:15:46;0.10;;;0.10;;
50126;SDS011;36024;47.974;16.398;2023-04-15T14:18:13;0.10;;;0.10;;
50126;SDS011;36024;47.974;16.398;2023-04-15T14:20:39;0.20;;;0.20;;
50126;SDS011;36024;47.974;16.398;2023-04-15T14:23:06;0.13;;;0.13;;
50126;SDS011;36024;47.974;16.398;2023-04-15T14:25:33;0.10;;;0.10;;
50126;SDS011;36024;47.974;16.398;2023-04-15T14:28:00;0.10;;;0.10;;
50126;SDS011;36024;47.974;16.398;2023-04-15T14:30:27;0.20;;;0.10;;
50126;SDS011;36024;47.974;16.398;2023-04-15T14:32:54;0.17;;;0.10;;
50126;SDS011;36024;47.974;16.398;2023-04-15T14:35:20;0.13;;;0.13;;
50126;SDS011;36024;47.974;16.398;2023-04-15T14:37:47;0.10;;;0.10;;
50126;SDS011;36024;47.974;16.398;2023-04-15T14:40:14;0.17;;;0.17;;
50126;SDS011;36024;47.974;16.398;2023-04-15T14:42:40;0.10;;;0.10;;
50126;SDS011;36024;47.974;16.398;2023-04-15T14:45:07;0.17;;;0.17;;
50126;SDS011;36024;47.974;16.398;2023-04-15T14:47:34;0.10;;;0.10;;
50126;SDS011;36024;47.974;16.398;2023-04-15T14:50:01;0.30;;;0.30;;
50126;SDS011;36024;47.974;16.398;2023-04-15T14:52:31;0.50;;;0.50;;
50126;SDS011;36024;47.974;16.398;2023-04-15T14:55:04;0.40;;;0.40;;